Time,TemperatureC,DewpointC,PressurehPa,WindDirection,WindDirectionDegrees,WindSpeedKMH,WindSpeedGustKMH,Humidity,HourlyPrecipMM,Conditions,Clouds,dailyrainMM,SolarRadiationWatts/m^2,UVIndex,SoftwareType,DateUTC
2026-05-05 00:03:48,16.1,12.9,999.3,North,0,0.2,0.7,62.9,0.0,,,0.0,2,0,n/a,2026-05-04T22:03:48Z
2026-05-05 00:09:49,16.1,12.9,999.3,NE,45,0.4,1.5,62.9,0.0,,,0.0,2,0,n/a,2026-05-04T22:09:49Z
2026-05-05 00:12:48,16.2,13,999.1,ENE,67,0,0,63,0.0,,,0.0,0,0,n/a,2026-05-04T22:12:48Z
2026-05-05 00:18:49,16.2,13,999.1,North,9,0.8,2,63.4,0.0,,,0.0,2,0,n/a,2026-05-04T22:18:49Z
2026-05-05 00:24:48,16.3,13,999.1,North,0,0,0,63.4,0.0,,,0.0,2,0,n/a,2026-05-04T22:24:48Z
2026-05-05 00:27:48,16.3,13,999.1,ENE,59,1.2,1.3,63.1,0.0,,,0.0,0,0,n/a,2026-05-04T22:27:48Z
2026-05-05 00:33:45,16.1,12.9,999.1,North,0,0,0,63.3,0.0,,,0.0,2,0,n/a,2026-05-04T22:33:45Z
2026-05-05 00:39:48,16,12.9,999.1,East,90,0,0,63.4,0.0,,,0.0,2,0,n/a,2026-05-04T22:39:48Z
2026-05-05 00:42:48,16,12.8,999.1,NE,45,0,0,63.2,0.0,,,0.0,0,0,n/a,2026-05-04T22:42:48Z
2026-05-05 00:48:48,15.9,12.9,999.1,North,0,0,0,63.4,0.0,,,0.0,2,0,n/a,2026-05-04T22:48:48Z
2026-05-05 00:54:49,15.8,12.8,999.1,West,270,0,0,63.1,0.0,,,0.0,2,0,n/a,2026-05-04T22:54:49Z
2026-05-05 00:57:49,15.9,12.6,998.8,ESE,112,0,0,63,0.0,,,0.0,0,0,n/a,2026-05-04T22:57:49Z
2026-05-05 01:03:45,15.9,12.6,998.8,NNE,32,2.7,4.6,62.9,0.0,,,0.0,2,0,n/a,2026-05-04T23:03:45Z
2026-05-05 01:09:48,15.7,12.6,998.8,NE,45,0,0,63.3,0.0,,,0.0,2,0,n/a,2026-05-04T23:09:48Z
2026-05-05 01:12:48,15.7,12.5,998.8,East,90,0.6,1.3,63.4,0.0,,,0.0,0,0,n/a,2026-05-04T23:12:48Z
2026-05-05 01:18:45,15.6,12.5,998.6,North,0,0,0,63.6,0.0,,,0.0,0,0,n/a,2026-05-04T23:18:45Z
2026-05-05 01:24:48,15.6,12.6,998.3,ENE,67,0,0,64,0.0,,,0.0,2,0,n/a,2026-05-04T23:24:48Z
2026-05-05 01:27:48,15.6,12.5,998.3,NE,45,0,0,64,0.0,,,0.0,2,0,n/a,2026-05-04T23:27:48Z
2026-05-05 01:33:48,15.5,12.7,998.3,NE,45,2.5,6.8,64.7,0.0,,,0.0,2,0,n/a,2026-05-04T23:33:48Z
2026-05-05 01:39:49,15.5,12.7,998.3,NNE,22,0,0,65,0.0,,,0.0,0,0,n/a,2026-05-04T23:39:49Z
2026-05-05 01:42:48,15.5,12.7,998.3,North,8,1.7,2.2,65.4,0.0,,,0.0,2,0,n/a,2026-05-04T23:42:48Z
2026-05-05 01:48:48,15.5,12.6,998.1,NNE,17,3,5.9,65.2,0.0,,,0.0,0,0,n/a,2026-05-04T23:48:48Z
2026-05-05 01:54:45,15.5,12.6,998.1,NNE,30,2.6,3.9,65.4,0.0,,,0.0,0,0,n/a,2026-05-04T23:54:45Z
2026-05-05 01:57:49,15.4,12.6,998.1,NNE,29,3.3,4.7,65.2,0.0,,,0.0,0,0,n/a,2026-05-04T23:57:49Z
2026-05-05 02:03:49,15.5,12.6,998.1,NE,51,0.7,1.3,65.6,0.0,,,0.0,2,0,n/a,2026-05-05T00:03:49Z
2026-05-05 02:09:48,15.4,12.6,997.8,North,6,1.1,2.6,65.5,0.0,,,0.0,0,0,n/a,2026-05-05T00:09:48Z
2026-05-05 02:12:48,15.4,12.5,998.1,NE,45,7.5,8,65.5,0.0,,,0.0,2,0,n/a,2026-05-05T00:12:48Z
2026-05-05 02:18:48,15.4,12.5,997.8,NNE,16,5,7.3,65.6,0.0,,,0.0,0,0,n/a,2026-05-05T00:18:48Z
2026-05-05 02:24:49,15.3,12.4,997.8,ENE,73,3.6,9.1,65.7,0.0,,,0.0,2,0,n/a,2026-05-05T00:24:49Z
2026-05-05 02:27:45,15.3,12.7,997.8,North,0,9.1,9.2,65.8,0.0,,,0.0,2,0,n/a,2026-05-05T00:27:45Z
2026-05-05 02:33:48,15.3,12.6,997.8,ESE,112,0,0,65.8,0.0,,,0.0,2,0,n/a,2026-05-05T00:33:48Z
2026-05-05 02:39:49,15.3,12.4,997.8,NNE,22,0,0,65.7,0.0,,,0.0,2,0,n/a,2026-05-05T00:39:49Z
2026-05-05 02:42:49,15.2,12.5,998.1,East,90,0,0,65.7,0.0,,,0.0,0,0,n/a,2026-05-05T00:42:49Z
2026-05-05 02:48:49,15.3,12.4,998.1,NNW,337,0,0,65.5,0.0,,,0.0,2,0,n/a,2026-05-05T00:48:49Z
2026-05-05 02:54:49,15.2,12.4,998.1,SSW,202,0,0,65.4,0.0,,,0.0,2,0,n/a,2026-05-05T00:54:49Z
2026-05-05 02:57:49,14.9,12.4,998.1,SSW,202,0,0,65.7,0.0,,,0.0,2,0,n/a,2026-05-05T00:57:49Z
2026-05-05 03:03:45,14.8,12.6,998.1,SSW,202,1.3,3.8,66.7,0.0,,,0.0,2,0,n/a,2026-05-05T01:03:45Z
2026-05-05 03:09:49,14.8,12.6,998.3,SW,225,0,0,67.1,0.0,,,0.0,2,0,n/a,2026-05-05T01:09:49Z
2026-05-05 03:12:49,14.7,12.7,998.3,SSW,202,0,0,67.7,0.0,,,0.0,0,0,n/a,2026-05-05T01:12:49Z
2026-05-05 03:18:49,14.7,12.7,998.3,WSW,247,0,0,67.6,0.0,,,0.0,2,0,n/a,2026-05-05T01:18:49Z
2026-05-05 03:24:48,14.6,12.8,998.3,North,0,0,0,67.9,0.0,,,0.0,0,0,n/a,2026-05-05T01:24:48Z
2026-05-05 03:27:48,14.4,12.7,998.3,North,0,0,0,68.2,0.0,,,0.0,2,0,n/a,2026-05-05T01:27:48Z
2026-05-05 03:33:49,14.2,12.9,998.3,East,90,0,0,69.1,0.0,,,0.0,2,0,n/a,2026-05-05T01:33:49Z
2026-05-05 03:39:48,14.1,13,998.3,East,90,0,0,70,0.0,,,0.0,0,0,n/a,2026-05-05T01:39:48Z
2026-05-05 03:42:48,14,13.1,998.3,East,90,0,0,71.1,0.0,,,0.0,0,0,n/a,2026-05-05T01:42:48Z
2026-05-05 03:48:49,14,12.9,998.3,East,90,0,0,70.7,0.0,,,0.0,0,0,n/a,2026-05-05T01:48:49Z
2026-05-05 03:54:48,13.9,13,998.3,ENE,67,0,0,71.1,0.0,,,0.0,2,0,n/a,2026-05-05T01:54:48Z
2026-05-05 03:57:48,13.8,13,998.3,ENE,67,0,0,71.3,0.0,,,0.0,0,0,n/a,2026-05-05T01:57:48Z
2026-05-05 04:03:48,13.7,13,998.3,ENE,67,0,0,71.7,0.0,,,0.0,2,0,n/a,2026-05-05T02:03:48Z
2026-05-05 04:09:45,13.6,13,998.3,East,90,0,0,72.1,0.0,,,0.0,2,0,n/a,2026-05-05T02:09:45Z
2026-05-05 04:12:49,13.5,13.1,998.3,South,180,0,0,73,0.0,,,0.0,0,0,n/a,2026-05-05T02:12:49Z
2026-05-05 04:18:49,13.5,13.1,998.3,South,180,0,0,73.2,0.0,,,0.0,2,0,n/a,2026-05-05T02:18:49Z
2026-05-05 04:24:48,13.5,13.2,998.3,South,180,0,0,73.6,0.0,,,0.0,0,0,n/a,2026-05-05T02:24:48Z
2026-05-05 04:27:45,13.4,13,998.3,South,180,0,0,73.3,0.0,,,0.0,0,0,n/a,2026-05-05T02:27:45Z
2026-05-05 04:33:49,13.3,13.2,998.3,South,180,0,0,73.8,0.0,,,0.0,0,0,n/a,2026-05-05T02:33:49Z
2026-05-05 04:39:48,13.2,13.2,998.3,East,90,0,0,74.6,0.0,,,0.0,0,0,n/a,2026-05-05T02:39:48Z
2026-05-05 04:42:49,13.1,13.2,998.1,East,90,0,0,75.4,0.0,,,0.0,0,0,n/a,2026-05-05T02:42:49Z
2026-05-05 04:48:49,13,13.3,997.8,East,81,1.4,2.6,76.3,0.0,,,0.0,0,0,n/a,2026-05-05T02:48:49Z
2026-05-05 04:54:49,13,13.3,997.8,NNE,22,0,0,76.4,0.0,,,0.0,2,0,n/a,2026-05-05T02:54:49Z
2026-05-05 04:57:49,13,13.3,997.6,North,0,0,0,76.3,0.0,,,0.0,0,0,n/a,2026-05-05T02:57:49Z
2026-05-05 05:03:45,13,13.2,997.6,North,0,0,0,76.5,0.0,,,0.0,0,0,n/a,2026-05-05T03:03:45Z
2026-05-05 05:09:48,13.3,13.2,997.3,NW,315,0,0,75.9,0.0,,,0.0,0,0,n/a,2026-05-05T03:09:48Z
2026-05-05 05:12:49,13.4,13.1,997.3,NNW,339,2.3,2.6,75.5,0.0,,,0.0,0,0,n/a,2026-05-05T03:12:49Z
2026-05-05 05:18:49,13.5,13,997.1,West,270,0,0,75.4,0.0,,,0.0,2,0,n/a,2026-05-05T03:18:49Z
2026-05-05 05:24:49,13.4,13.1,997.1,East,90,0,0,75.5,0.0,,,0.0,0,0,n/a,2026-05-05T03:24:49Z
2026-05-05 05:27:48,13.1,13.1,996.8,ESE,112,0,0,75.7,0.0,,,0.0,0,0,n/a,2026-05-05T03:27:48Z
2026-05-05 05:33:48,13.2,13.1,996.8,NW,315,0,0,75.8,0.0,,,0.0,2,0,n/a,2026-05-05T03:33:48Z
2026-05-05 05:39:49,13.3,13.2,996.8,North,0,0,0,76,0.0,,,0.0,2,0,n/a,2026-05-05T03:39:49Z
2026-05-05 05:42:48,13.3,13.3,996.8,NE,45,0,0,76.6,0.0,,,0.0,0,0,n/a,2026-05-05T03:42:48Z
2026-05-05 05:48:48,13.3,13.1,996.6,ESE,112,0,0,76.4,0.0,,,0.0,2,0,n/a,2026-05-05T03:48:48Z
2026-05-05 05:54:45,13.2,13.3,996.4,East,90,1.9,5.8,77.3,0.0,,,0.0,2,0,n/a,2026-05-05T03:54:45Z
2026-05-05 05:57:49,13.1,13.1,996.4,ESE,112,0,0,77,0.0,,,0.0,2,0,n/a,2026-05-05T03:57:49Z
2026-05-05 06:03:48,13.3,13.2,996.4,NE,45,0,0,77.3,0.0,,,0.0,2,0,n/a,2026-05-05T04:03:48Z
2026-05-05 06:09:49,13.3,13.3,996.4,ENE,67,0,0,77.3,0.0,,,0.0,2,0,n/a,2026-05-05T04:09:49Z
2026-05-05 06:12:49,13.5,13.2,996.4,North,0,0,0,77.1,0.0,,,0.0,2,0,n/a,2026-05-05T04:12:49Z
2026-05-05 06:18:49,13.4,13.2,996.4,WNW,292,0,0,77,0.0,,,0.0,4,0,n/a,2026-05-05T04:18:49Z
2026-05-05 06:24:49,13.6,13,996.4,NW,319,4,8.8,76.5,0.0,,,0.0,4,0,n/a,2026-05-05T04:24:49Z
2026-05-05 06:27:45,13.5,13.1,996.4,NW,315,0,0,76.7,0.0,,,0.0,4,0,n/a,2026-05-05T04:27:45Z
2026-05-05 06:33:49,13.5,13.2,996.1,SW,225,0,0,76.8,0.0,,,0.0,8,0,n/a,2026-05-05T04:33:49Z
2026-05-05 06:39:49,13.4,13.2,996.1,South,180,0,0,77.3,0.0,,,0.0,10,0,n/a,2026-05-05T04:39:49Z
2026-05-05 06:42:49,13.5,13.2,996.1,SSE,157,0,0,77.4,0.0,,,0.0,14,0,n/a,2026-05-05T04:42:49Z
2026-05-05 06:48:49,13.5,13.2,996.1,South,180,1.2,2.5,77.8,0.0,,,0.0,18,0,n/a,2026-05-05T04:48:49Z
2026-05-05 06:54:49,13.5,13.3,996.1,South,180,1.3,2.6,77.6,0.0,,,0.0,24,0,n/a,2026-05-05T04:54:49Z